Tallahassee Regional Airport
KTLH : now visible

Airfield :











YOU CAN JOIN US ON...

 
LOGIN :

Register | Disclaimer

   EN    FR    IT 

 









Legend :    VFR   Marginal VFR   IFR   Intensive IFR   Very Intensive IFR
Visi :
Ceiling :
>= 8 km
>= 3000ft
5 to 8 km
1000 to 3000 ft
1500m to 5 km
500 to 1000 ft
800 to 1500m
200 to 500 ft
< 800m
< 200 ft
Symbols :   Thunderstorms  Fog  Heavy snow  Heavy precipitations  Wind > 20 kt







- Airport Elevation : 81 ft
- IATA code : TLH


KTLH - Tallahassee Regional

CURRENT METAR :
  • 210353Z AUTO 00000KT 9SM CLR 23/17 A2996 RMK AO2 SLP143 T02280172

EXPIRED METARs :
  • 210253Z 00000KT 10SM FEW050 FEW250 24/17 A2997 RMK AO2 SLP146 T02440172 51005
  • 210153Z 22004KT 10SM FEW050 FEW250 26/17 A2997 RMK AO2 SLP146 T02610167

TAF KTLH
Valid from the 21 at 00:00 until the 22 at 00:00 UTC


202345Z 2100/2124 23006KT P6SM SCT050 SCT250
FM210900 00000KT 4SM BR SCT003
FM211400 17005KT P6SM SCT250
KZJX FIR / North America



MET'MAP, your aeronautical weather chart ! - Copyright ORBIFLY December 2007 - Disclaimer

ORBIFLY MET'MAP TEAM :

Programming & Development : Alexandra Zaïnal
Concept & Development : Baudouin d'Aumeries
Co-Development & Prog : Marc-Olivier Méhu
Technical & hardware support : Manuel Goepfert

Contact : metmap@orbifly.com




SOURCES & CREDITS :

   NOAA       Earth
Advisory